Clarksville, AR (72830)

5:18 PM CDT on July 27, 2016 (GMT -0500)
The GRAPHIC(West Main) | | Change Station

Elev 410 ft 35.47 °N, 93.50 °W | Updated 8 seconds ago

Scattered Clouds
Scattered Clouds
84.2 °F
Feels Like 99 °F
N
4.0
Wind Variable Wind from SW
Gusts 5.4 mph

Today
High -- | Low -- °F
--% Chance of Precip.
Yesterday
High -- | Low -- °F
Precip. -- in
Pressure 29.89 in
Visibility 10.0 miles
Clouds Few 7000 ft
Scattered Clouds 9500 ft
Scattered Clouds 11000 ft
Heat Index 99 °F
Dew Point 81 °F
Humidity 90%
Rainfall 0.00 in
Snow Depth Not available.
6:18 AM 8:21 PM
Last Quarter, 39% visible
METAR KRUE 272153Z AUTO VRB03KT 10SM FEW070 SCT095 SCT110 27/25 A2991 RMK AO2 RAE31 SLP122 P0007 T02720250 TSNO
Pressure 29.89 in
Visibility 10.0 miles
Clouds Few 7000 ft
Scattered Clouds 9500 ft
Scattered Clouds 11000 ft
Heat Index 99 °F
Dew Point 81 °F
Humidity 90%
Rainfall 0.00 in
Snow Depth Not available.
6:18 AM 8:21 PM
Last Quarter, 39% visible
METAR KRUE 272153Z AUTO VRB03KT 10SM FEW070 SCT095 SCT110 27/25 A2991 RMK AO2 RAE31 SLP122 P0007 T02720250 TSNO

10-Day Weather Forecast

Almanac

Astronomy

Jul. 27, 2016 Rise Set
Actual Time
Civil Twilight
Nautical Twilight
Astronomical Twilight
Moon
Length of Visible Light
Length of Day
Tomorrow will be .
, % of the Moon is Illuminated

Today's Extremes

State Highs State Lows

Community

WunderPhotos

Upload Photos

1,927,946 photos uploaded!

WunderBlog® & News

Nearby

Air Quality

  Air Quality AQ Index Pollutant
Not available.

Snow Depth

Station Depth Elevation

Earthquake Activity

City Distance Mag. Time & Date
Minimum magnitude displayed is 2.5.

Coastal Water Temperatures

Place Temperature

Stations

Nearby Weather Stations

Station Location Temp. Windchill Dew Point Humidity Wind Precip. Elev Updated Type
                   

Watches & Warnings

There are currently no watches in effect.